Time;durP1;ratioP1;P1;durP2;ratioP2;P2;SDS_P1;SDS_P2;PMS_P1;PMS_P2;Temp;Humidity;BMP_temperature;BMP_pressure;BME280_temperature;BME280_humidity;BME280_pressure;Samples;Min_cycle;Max_cycle;Signal;HPM_P1;HPM_P2
2022/05/26 00:01:06;;;;;;;5.70;2.57;;;;;;;;;;5097104;28;20899;-70
2022/05/26 00:03:38;;;;;;;7.53;3.33;;;;;;;;;;5098156;28;20526;-70
2022/05/26 00:06:06;;;;;;;5.33;2.80;;;;;;;;;;5098211;28;20540;-70
2022/05/26 00:08:34;;;;;;;11.13;3.10;;;;;;;;;;5097781;28;20827;-70
2022/05/26 00:11:01;;;;;;;5.50;3.20;;;;;;;;;;5098975;28;20465;-70
2022/05/26 00:13:28;;;;;;;3.10;2.80;;;;;;;;;;5097793;28;20496;-70
2022/05/26 00:15:55;;;;;;;5.27;3.00;;;;;;;;;;5097692;28;20717;-70
2022/05/26 00:18:22;;;;;;;4.20;2.93;;;;;;;;;;5097425;28;20448;-70
2022/05/26 00:20:53;;;;;;;5.87;3.17;;;;;;;;;;5078790;28;20883;-70
2022/05/26 00:23:20;;;;;;;4.30;2.40;;;;;;;;;;5086807;28;20783;-70
2022/05/26 00:25:47;;;;;;;6.37;2.20;;;;;;;;;;5098737;28;20459;-70
2022/05/26 00:28:17;;;;;;;4.03;1.80;;;;;;;;;;5097609;28;20554;-70
2022/05/26 00:30:44;;;;;;;7.97;2.57;;;;;;;;;;5098448;28;20455;-70
2022/05/26 00:33:11;;;;;;;2.43;1.80;;;;;;;;;;5098186;28;20487;-70
2022/05/26 00:35:40;;;;;;;5.00;1.90;;;;;;;;;;5098131;28;20454;-70
2022/05/26 00:38:08;;;;;;;8.20;2.07;;;;;;;;;;5097240;28;20444;-70
2022/05/26 00:40:41;;;;;;;5.00;1.70;;;;;;;;;;5097643;28;20765;-70
2022/05/26 00:43:09;;;;;;;3.47;1.70;;;;;;;;;;5097867;28;20460;-70
2022/05/26 00:45:38;;;;;;;3.60;1.97;;;;;;;;;;5095415;28;20448;-70
2022/05/26 00:48:07;;;;;;;4.33;2.57;;;;;;;;;;5095335;28;20491;-70
2022/05/26 00:50:36;;;;;;;4.03;1.80;;;;;;;;;;5098606;28;20447;-70
2022/05/26 00:53:08;;;;;;;3.60;1.70;;;;;;;;;;5097272;28;20451;-70
2022/05/26 00:55:40;;;;;;;3.30;1.67;;;;;;;;;;5097453;28;20645;-70
2022/05/26 00:58:10;;;;;;;3.27;1.60;;;;;;;;;;5096546;28;20467;-70
2022/05/26 01:00:38;;;;;;;3.00;2.00;;;;;;;;;;5097199;28;20444;-70
2022/05/26 01:03:09;;;;;;;5.30;2.40;;;;;;;;;;5097166;28;20456;-71
2022/05/26 01:05:40;;;;;;;3.90;1.83;;;;;;;;;;5096128;28;20525;-70
2022/05/26 01:08:11;;;;;;;5.30;2.00;;;;;;;;;;5096492;28;20447;-70
2022/05/26 01:10:39;;;;;;;3.03;1.50;;;;;;;;;;5097185;28;20448;-70
2022/05/26 01:13:06;;;;;;;11.00;3.50;;;;;;;;;;5096392;28;20494;-70
2022/05/26 01:15:36;;;;;;;2.10;1.40;;;;;;;;;;5096577;28;20451;-69
2022/05/26 01:18:12;;;;;;;4.20;1.63;;;;;;;;;;5096599;28;20616;-69
2022/05/26 01:20:51;;;;;;;2.70;1.70;;;;;;;;;;5095608;28;20488;-69
2022/05/26 01:23:33;;;;;;;2.60;1.80;;;;;;;;;;5096842;28;20471;-69
2022/05/26 01:26:15;;;;;;;3.20;2.20;;;;;;;;;;5096597;28;20863;-69
2022/05/26 01:28:53;;;;;;;5.50;2.13;;;;;;;;;;5096414;28;20864;-70
2022/05/26 01:31:29;;;;;;;6.97;2.17;;;;;;;;;;5095857;28;20491;-71
2022/05/26 01:33:59;;;;;;;2.87;1.60;;;;;;;;;;5096107;28;20551;-70
2022/05/26 01:36:30;;;;;;;3.57;1.70;;;;;;;;;;5096219;28;20528;-70
2022/05/26 01:39:07;;;;;;;4.07;2.10;;;;;;;;;;5097054;28;20459;-70
2022/05/26 01:41:44;;;;;;;4.00;2.03;;;;;;;;;;5096746;28;20728;-70
2022/05/26 01:44:13;;;;;;;7.00;2.67;;;;;;;;;;5096432;28;20605;-71
2022/05/26 01:46:41;;;;;;;4.47;1.93;;;;;;;;;;5095916;28;20448;-71
2022/05/26 01:49:13;;;;;;;3.03;2.00;;;;;;;;;;5096022;28;20455;-70
2022/05/26 01:51:43;;;;;;;5.50;2.43;;;;;;;;;;5096127;28;20725;-70
2022/05/26 01:54:14;;;;;;;5.67;3.40;;;;;;;;;;5096649;28;20494;-70
2022/05/26 01:56:45;;;;;;;7.03;2.80;;;;;;;;;;5096296;28;20820;-70
2022/05/26 01:59:13;;;;;;;3.00;2.37;;;;;;;;;;5095150;28;20490;-70
2022/05/26 02:01:43;;;;;;;5.77;3.37;;;;;;;;;;5095797;28;20751;-70
2022/05/26 02:04:14;;;;;;;3.10;1.73;;;;;;;;;;5095394;28;20458;-70
2022/05/26 02:06:44;;;;;;;3.60;2.27;;;;;;;;;;5096087;28;20467;-70
2022/05/26 02:09:13;;;;;;;9.50;2.13;;;;;;;;;;5095463;28;20451;-70
2022/05/26 02:11:43;;;;;;;3.67;2.63;;;;;;;;;;5095996;28;20481;-70
2022/05/26 02:14:12;;;;;;;3.50;2.37;;;;;;;;;;5095364;28;20488;-70
2022/05/26 02:16:42;;;;;;;7.03;2.77;;;;;;;;;;5095495;28;20751;-70
2022/05/26 02:19:14;;;;;;;10.90;4.40;;;;;;;;;;5095835;28;20546;-70
2022/05/26 02:21:44;;;;;;;3.57;2.20;;;;;;;;;;5095748;28;20531;-70
2022/05/26 02:24:16;;;;;;;5.73;2.57;;;;;;;;;;5095524;28;20936;-70
2022/05/26 02:26:43;;;;;;;4.07;2.20;;;;;;;;;;5085571;28;20559;-70
2022/05/26 02:31:56;;;;;;;3.83;2.87;;;;;;;;;;5075876;28;20435;-70
2022/05/26 02:34:24;;;;;;;6.03;2.50;;;;;;;;;;5075695;28;20492;-70
2022/05/26 02:36:54;;;;;;;5.57;3.23;;;;;;;;;;5075575;28;20468;-70
2022/05/26 02:39:21;;;;;;;5.33;2.50;;;;;;;;;;5074915;28;20452;-70
2022/05/26 02:41:53;;;;;;;4.90;3.13;;;;;;;;;;5076618;28;20531;-70
2022/05/26 02:44:20;;;;;;;8.87;4.00;;;;;;;;;;5075835;28;20480;-70
2022/05/26 02:47:06;;;;;;;7.00;3.40;;;;;;;;;;5075599;28;20459;-70
2022/05/26 02:49:39;;;;;;;11.80;3.47;;;;;;;;;;5075050;28;20456;-70
2022/05/26 02:52:11;;;;;;;5.03;3.40;;;;;;;;;;5075873;28;20452;-70
2022/05/26 02:54:46;;;;;;;4.37;3.67;;;;;;;;;;5074849;28;20591;-69
2022/05/26 02:57:15;;;;;;;4.33;3.10;;;;;;;;;;5074963;28;20447;-71
2022/05/26 02:59:48;;;;;;;3.63;2.93;;;;;;;;;;5075853;28;20857;-71
2022/05/26 03:02:19;;;;;;;6.83;4.23;;;;;;;;;;5079000;28;20451;-70
2022/05/26 03:04:49;;;;;;;6.03;3.60;;;;;;;;;;5096367;28;20455;-70
2022/05/26 03:07:18;;;;;;;5.30;3.50;;;;;;;;;;5096657;28;20797;-70
2022/05/26 03:09:46;;;;;;;5.60;3.60;;;;;;;;;;5095422;28;20447;-70
2022/05/26 03:12:23;;;;;;;5.50;3.77;;;;;;;;;;5095865;28;20848;-70
2022/05/26 03:14:50;;;;;;;6.53;3.90;;;;;;;;;;5095742;28;20492;-70
2022/05/26 03:17:17;;;;;;;5.43;3.50;;;;;;;;;;5095193;28;20820;-70
2022/05/26 03:19:44;;;;;;;6.13;3.63;;;;;;;;;;5095760;28;20447;-70
2022/05/26 03:22:13;;;;;;;9.57;3.77;;;;;;;;;;5095362;28;20800;-70
2022/05/26 03:24:40;;;;;;;6.10;3.70;;;;;;;;;;5095578;28;20774;-70
2022/05/26 03:27:07;;;;;;;7.20;3.47;;;;;;;;;;5095556;28;20455;-70
2022/05/26 03:29:34;;;;;;;5.90;4.00;;;;;;;;;;5096261;28;20455;-70
2022/05/26 03:32:01;;;;;;;4.90;4.00;;;;;;;;;;5096174;28;20452;-70
2022/05/26 03:42:57;;;;;;;7.77;3.60;;;;;;;;;;5052687;28;20444;-70
2022/05/26 03:45:24;;;;;;;5.90;2.90;;;;;;;;;;5051899;28;20800;-70
2022/05/26 03:47:51;;;;;;;4.43;3.37;;;;;;;;;;5062620;28;20470;-70
2022/05/26 03:50:19;;;;;;;3.70;3.30;;;;;;;;;;5094672;28;20738;-70
2022/05/26 03:52:46;;;;;;;4.07;2.90;;;;;;;;;;5095006;28;20455;-70
2022/05/26 03:55:14;;;;;;;12.43;5.00;;;;;;;;;;5095364;28;20502;-70
2022/05/26 03:57:40;;;;;;;3.73;3.00;;;;;;;;;;5098376;28;20455;-70
2022/05/26 04:00:08;;;;;;;5.03;3.90;;;;;;;;;;5098777;28;20494;-70
2022/05/26 04:02:36;;;;;;;4.53;3.00;;;;;;;;;;5097765;28;20755;-70
2022/05/26 04:05:03;;;;;;;6.33;3.23;;;;;;;;;;5099214;28;20452;-70
2022/05/26 04:07:30;;;;;;;3.87;3.47;;;;;;;;;;5098125;28;20711;-70
2022/05/26 04:09:58;;;;;;;4.00;3.37;;;;;;;;;;5098764;28;20498;-70
2022/05/26 04:12:25;;;;;;;7.03;3.80;;;;;;;;;;5097548;28;20732;-70
2022/05/26 04:14:51;;;;;;;6.97;3.37;;;;;;;;;;5097542;28;20539;-70
2022/05/26 04:17:18;;;;;;;5.77;4.47;;;;;;;;;;5098255;28;20452;-70
2022/05/26 04:19:45;;;;;;;8.67;4.10;;;;;;;;;;5098679;28;20512;-70
2022/05/26 04:22:15;;;;;;;5.37;4.20;;;;;;;;;;5098053;28;20546;-70
2022/05/26 04:24:45;;;;;;;5.60;4.00;;;;;;;;;;5096853;28;20735;-70
2022/05/26 04:27:14;;;;;;;5.70;4.47;;;;;;;;;;5097876;28;20500;-70
2022/05/26 04:29:43;;;;;;;6.30;4.33;;;;;;;;;;5097497;28;20463;-70
2022/05/26 04:32:10;;;;;;;5.40;4.10;;;;;;;;;;5098315;28;20863;-70
2022/05/26 04:34:48;;;;;;;9.63;4.60;;;;;;;;;;5097192;28;20908;-71
2022/05/26 04:37:15;;;;;;;8.03;4.10;;;;;;;;;;5098254;28;20993;-71
2022/05/26 04:39:42;;;;;;;5.40;4.80;;;;;;;;;;5098173;28;21089;-70
2022/05/26 04:42:09;;;;;;;10.20;4.33;;;;;;;;;;5098176;28;20531;-69
2022/05/26 04:44:38;;;;;;;5.73;4.03;;;;;;;;;;5097881;28;20460;-71
2022/05/26 04:47:08;;;;;;;5.40;4.40;;;;;;;;;;5098092;28;20514;-71
2022/05/26 04:49:37;;;;;;;8.07;4.53;;;;;;;;;;5098298;28;20459;-71
2022/05/26 04:52:05;;;;;;;7.87;5.43;;;;;;;;;;5097670;28;20450;-71
2022/05/26 04:54:36;;;;;;;8.87;4.70;;;;;;;;;;5098186;28;20495;-70
2022/05/26 04:57:06;;;;;;;6.67;4.60;;;;;;;;;;5097596;28;20541;-70
2022/05/26 04:59:34;;;;;;;7.00;3.77;;;;;;;;;;5096993;28;20456;-70
2022/05/26 05:02:02;;;;;;;6.97;4.30;;;;;;;;;;5097193;28;20444;-70
2022/05/26 05:04:29;;;;;;;8.03;3.90;;;;;;;;;;5096627;28;20467;-70
2022/05/26 05:06:56;;;;;;;9.30;4.27;;;;;;;;;;5096787;28;20554;-70
2022/05/26 05:09:26;;;;;;;5.93;3.80;;;;;;;;;;5097090;28;20525;-70
2022/05/26 05:11:58;;;;;;;10.83;4.10;;;;;;;;;;5096852;28;20701;-70
2022/05/26 05:14:27;;;;;;;5.63;3.13;;;;;;;;;;5097046;28;20483;-70
2022/05/26 05:16:57;;;;;;;8.50;3.70;;;;;;;;;;5077541;28;20472;-70
2022/05/26 05:19:25;;;;;;;4.73;3.27;;;;;;;;;;5076653;28;20532;-71
2022/05/26 05:22:02;;;;;;;6.83;3.30;;;;;;;;;;5077635;28;20471;-70
2022/05/26 05:24:31;;;;;;;3.80;2.80;;;;;;;;;;5076845;28;20545;-71
2022/05/26 05:27:02;;;;;;;9.30;3.93;;;;;;;;;;5076815;28;20451;-71
2022/05/26 05:29:32;;;;;;;7.93;3.10;;;;;;;;;;5097077;28;20722;-71
2022/05/26 05:32:04;;;;;;;4.87;2.43;;;;;;;;;;5097162;28;21024;-71
2022/05/26 05:34:36;;;;;;;4.60;3.53;;;;;;;;;;5096432;28;20666;-71
2022/05/26 05:37:03;;;;;;;7.27;3.60;;;;;;;;;;5096146;28;20495;-71
2022/05/26 05:39:30;;;;;;;5.53;3.30;;;;;;;;;;5096022;28;20455;-71
2022/05/26 05:41:59;;;;;;;5.47;3.30;;;;;;;;;;5095693;28;20761;-70
2022/05/26 05:44:28;;;;;;;5.13;2.90;;;;;;;;;;5095140;28;20483;-70
2022/05/26 05:46:57;;;;;;;3.90;2.80;;;;;;;;;;5095210;28;20538;-70
2022/05/26 05:49:25;;;;;;;7.27;3.23;;;;;;;;;;5095598;28;20443;-70
2022/05/26 05:51:53;;;;;;;4.57;3.37;;;;;;;;;;5095922;28;20458;-70
2022/05/26 05:54:20;;;;;;;7.00;3.20;;;;;;;;;;5095372;28;20740;-70
2022/05/26 05:56:48;;;;;;;5.90;3.83;;;;;;;;;;5095369;28;20871;-70
2022/05/26 05:59:18;;;;;;;5.83;3.00;;;;;;;;;;5094507;28;20459;-70
2022/05/26 06:01:45;;;;;;;4.97;3.53;;;;;;;;;;5095908;28;20553;-70
2022/05/26 06:04:12;;;;;;;9.37;3.27;;;;;;;;;;5095758;28;20455;-70
2022/05/26 06:06:40;;;;;;;6.37;3.47;;;;;;;;;;5097637;28;20512;-70
2022/05/26 06:09:08;;;;;;;5.93;3.17;;;;;;;;;;5096652;28;20450;-70
2022/05/26 06:11:35;;;;;;;5.93;3.50;;;;;;;;;;5096633;28;20528;-70
2022/05/26 06:14:03;;;;;;;5.13;2.90;;;;;;;;;;5095360;28;20570;-70
2022/05/26 06:16:31;;;;;;;11.50;3.90;;;;;;;;;;5095390;28;20875;-70
2022/05/26 06:18:58;;;;;;;4.07;3.10;;;;;;;;;;5094973;27;20544;-70
2022/05/26 06:21:25;;;;;;;5.90;2.80;;;;;;;;;;5096660;28;20451;-69
2022/05/26 06:23:53;;;;;;;4.23;2.37;;;;;;;;;;5096445;28;20451;-69
2022/05/26 06:26:26;;;;;;;4.03;3.10;;;;;;;;;;5095954;28;20455;-72
2022/05/26 06:31:39;;;;;;;6.67;2.63;;;;;;;;;;5095521;28;20492;-71
2022/05/26 06:39:37;;;;;;;5.60;2.80;;;;;;;;;;5094692;28;20591;-71
2022/05/26 06:42:05;;;;;;;4.47;2.63;;;;;;;;;;5094618;28;20447;-71
2022/05/26 06:44:33;;;;;;;10.10;2.97;;;;;;;;;;5095116;28;20474;-70
2022/05/26 06:47:02;;;;;;;6.10;2.67;;;;;;;;;;5095386;28;20919;-71
2022/05/26 06:49:29;;;;;;;10.97;3.30;;;;;;;;;;5094184;28;20633;-71
2022/05/26 06:51:56;;;;;;;8.80;3.07;;;;;;;;;;5094320;28;20957;-70
2022/05/26 06:54:23;;;;;;;4.20;2.63;;;;;;;;;;5094510;28;20681;-70
2022/05/26 06:56:50;;;;;;;5.23;3.13;;;;;;;;;;5094501;28;20458;-70
2022/05/26 06:59:17;;;;;;;6.43;3.13;;;;;;;;;;5093881;28;20557;-70
2022/05/26 07:01:45;;;;;;;4.80;2.60;;;;;;;;;;5094513;28;20468;-70
2022/05/26 07:04:13;;;;;;;3.57;2.60;;;;;;;;;;5093664;28;20521;-70
2022/05/26 07:06:40;;;;;;;6.90;2.50;;;;;;;;;;5094266;28;20507;-70
2022/05/26 07:09:07;;;;;;;3.87;2.40;;;;;;;;;;5095106;28;20630;-70
2022/05/26 07:11:39;;;;;;;5.77;2.80;;;;;;;;;;5093390;28;20452;-70
2022/05/26 07:14:07;;;;;;;8.10;3.83;;;;;;;;;;5094105;28;20507;-70
2022/05/26 07:16:35;;;;;;;8.17;2.70;;;;;;;;;;5094092;28;21380;-70
2022/05/26 07:19:02;;;;;;;6.60;2.23;;;;;;;;;;5094264;28;20513;-70
2022/05/26 07:21:29;;;;;;;3.27;2.50;;;;;;;;;;5094061;28;20447;-70
2022/05/26 07:23:58;;;;;;;10.00;2.90;;;;;;;;;;5106722;27;21061;-71
2022/05/26 07:26:26;;;;;;;9.90;2.97;;;;;;;;;;5115170;27;20457;-70
2022/05/26 07:28:53;;;;;;;4.27;2.90;;;;;;;;;;5113799;27;20534;-70
2022/05/26 07:31:21;;;;;;;6.73;2.90;;;;;;;;;;5098026;28;20898;-70
2022/05/26 07:33:49;;;;;;;4.10;2.30;;;;;;;;;;5097116;28;20482;-71
2022/05/26 07:41:47;;;;;;;5.87;2.50;;;;;;;;;;5097329;28;20507;-71
2022/05/26 07:44:16;;;;;;;6.23;2.07;;;;;;;;;;5096595;28;20715;-71
2022/05/26 07:47:12;;;;;;;4.40;2.10;;;;;;;;;;5097666;28;21112;-69
2022/05/26 07:49:42;;;;;;;3.80;2.03;;;;;;;;;;5082265;28;20541;-71
2022/05/26 07:52:13;;;;;;;5.37;1.97;;;;;;;;;;5076115;28;20477;-70
2022/05/26 07:54:40;;;;;;;5.33;1.53;;;;;;;;;;5088862;28;20533;-69
2022/05/26 07:57:07;;;;;;;5.23;2.03;;;;;;;;;;5097004;28;20561;-70
2022/05/26 07:59:35;;;;;;;5.50;3.07;;;;;;;;;;5096222;28;20456;-70
2022/05/26 08:02:02;;;;;;;4.40;2.00;;;;;;;;;;5096426;28;20486;-70
2022/05/26 08:04:31;;;;;;;5.47;1.57;;;;;;;;;;5096665;28;20451;-70
2022/05/26 08:06:58;;;;;;;3.50;1.47;;;;;;;;;;5096460;28;20535;-69
2022/05/26 08:09:26;;;;;;;5.80;1.63;;;;;;;;;;5095304;28;20459;-71
2022/05/26 08:11:53;;;;;;;3.40;1.60;;;;;;;;;;5095779;28;20490;-71
2022/05/26 08:14:20;;;;;;;7.73;1.57;;;;;;;;;;5095581;28;20475;-70
2022/05/26 08:16:47;;;;;;;3.10;1.00;;;;;;;;;;5095630;28;20569;-71
2022/05/26 08:19:16;;;;;;;5.43;1.60;;;;;;;;;;5096292;28;20724;-71
2022/05/26 08:21:44;;;;;;;2.80;1.13;;;;;;;;;;5095156;28;20448;-71
2022/05/26 08:24:16;;;;;;;3.73;1.60;;;;;;;;;;5096698;28;20451;-70
2022/05/26 08:26:43;;;;;;;8.03;1.33;;;;;;;;;;5096098;28;20528;-71
2022/05/26 08:29:10;;;;;;;2.93;1.30;;;;;;;;;;5095239;28;20467;-71
2022/05/26 08:31:37;;;;;;;3.67;0.93;;;;;;;;;;5096785;28;20482;-71
2022/05/26 08:34:04;;;;;;;3.90;1.20;;;;;;;;;;5096653;28;20570;-71
2022/05/26 08:36:31;;;;;;;6.63;1.40;;;;;;;;;;5097428;28;20448;-71
2022/05/26 08:38:59;;;;;;;5.30;1.43;;;;;;;;;;5095706;28;20466;-71
2022/05/26 08:41:28;;;;;;;3.30;1.07;;;;;;;;;;5094867;28;20487;-71
2022/05/26 08:44:00;;;;;;;3.67;1.40;;;;;;;;;;5094934;28;20463;-71
2022/05/26 08:46:33;;;;;;;4.33;1.33;;;;;;;;;;5095100;28;20508;-71
2022/05/26 08:49:10;;;;;;;5.40;1.30;;;;;;;;;;5095825;28;20443;-71
2022/05/26 08:51:42;;;;;;;4.90;0.90;;;;;;;;;;5096391;28;20469;-70
2022/05/26 08:54:12;;;;;;;4.07;1.20;;;;;;;;;;5096425;28;20493;-70
2022/05/26 08:56:40;;;;;;;4.67;1.10;;;;;;;;;;5095323;28;20506;-70
2022/05/26 08:59:11;;;;;;;7.17;1.50;;;;;;;;;;5095020;28;20463;-71
2022/05/26 09:01:39;;;;;;;5.00;1.30;;;;;;;;;;5095430;28;20466;-71
2022/05/26 09:04:06;;;;;;;4.30;1.23;;;;;;;;;;5096608;28;21016;-71
2022/05/26 09:12:55;;;;;;;5.20;1.40;;;;;;;;;;5095910;28;20460;-71
2022/05/26 09:15:15;;;;;;;4.80;1.33;;;;;;;;;;5033237;28;20470;-70
2022/05/26 09:17:42;;;;;;;5.07;1.00;;;;;;;;;;5065919;28;20468;-70
2022/05/26 09:20:25;;;;;;;2.00;0.80;;;;;;;;;;5075764;28;20461;-70
2022/05/26 09:22:52;;;;;;;5.00;1.20;;;;;;;;;;5074503;28;20456;-70
2022/05/26 09:25:31;;;;;;;4.90;1.17;;;;;;;;;;5074472;28;20498;-70
2022/05/26 09:27:59;;;;;;;3.23;1.00;;;;;;;;;;5074955;28;20453;-71
2022/05/26 09:30:33;;;;;;;4.20;0.90;;;;;;;;;;5074146;28;20457;-71
2022/05/26 09:33:03;;;;;;;3.50;1.00;;;;;;;;;;5075295;28;20857;-71
2022/05/26 09:38:18;;;;;;;3.13;0.90;;;;;;;;;;5088924;28;20448;-72
2022/05/26 09:40:46;;;;;;;3.50;0.93;;;;;;;;;;5089427;28;20545;-72
2022/05/26 09:43:23;;;;;;;3.30;0.90;;;;;;;;;;5095994;28;20475;-72
2022/05/26 09:45:53;;;;;;;1.70;0.70;;;;;;;;;;5097145;28;20462;-71
2022/05/26 09:48:26;;;;;;;2.30;0.80;;;;;;;;;;5094749;28;20790;-71
2022/05/26 09:50:53;;;;;;;3.30;1.33;;;;;;;;;;5094051;28;20769;-71
2022/05/26 09:53:30;;;;;;;2.23;0.87;;;;;;;;;;5093435;28;20444;-71
2022/05/26 09:55:58;;;;;;;4.50;1.00;;;;;;;;;;5095270;28;20513;-71
2022/05/26 09:58:31;;;;;;;2.43;0.80;;;;;;;;;;5095503;28;20443;-71
2022/05/26 10:00:59;;;;;;;2.13;0.97;;;;;;;;;;5093976;28;20459;-71
2022/05/26 10:03:38;;;;;;;3.30;1.70;;;;;;;;;;5095036;28;20459;-72
2022/05/26 10:06:19;;;;;;;4.70;0.87;;;;;;;;;;5095329;28;20474;-71
2022/05/26 10:08:51;;;;;;;3.43;0.90;;;;;;;;;;5093448;28;20463;-72
2022/05/26 10:11:23;;;;;;;4.10;1.00;;;;;;;;;;5084766;28;20452;-72
2022/05/26 10:14:02;;;;;;;3.20;1.03;;;;;;;;;;5074961;28;20486;-71
2022/05/26 10:16:33;;;;;;;5.50;1.03;;;;;;;;;;5074919;28;20541;-72
2022/05/26 10:19:17;;;;;;;2.93;1.00;;;;;;;;;;5076227;28;20471;-71
2022/05/26 10:21:54;;;;;;;6.77;1.00;;;;;;;;;;5075282;28;20963;-72
2022/05/26 10:24:40;;;;;;;3.03;0.90;;;;;;;;;;5079302;28;20455;-72
2022/05/26 10:27:17;;;;;;;2.20;0.70;;;;;;;;;;5095508;28;20550;-72
2022/05/26 10:29:57;;;;;;;2.43;0.80;;;;;;;;;;5094094;28;20745;-72
2022/05/26 10:32:29;;;;;;;5.70;1.20;;;;;;;;;;5093526;28;20445;-72
2022/05/26 10:35:04;;;;;;;3.03;0.87;;;;;;;;;;5095942;28;20498;-71
2022/05/26 10:37:41;;;;;;;4.10;1.03;;;;;;;;;;5088541;28;20470;-71
2022/05/26 10:40:24;;;;;;;5.90;0.87;;;;;;;;;;5095512;28;20474;-71
2022/05/26 10:42:57;;;;;;;4.50;1.20;;;;;;;;;;5096062;28;20716;-70
2022/05/26 10:45:32;;;;;;;2.80;0.90;;;;;;;;;;5096138;28;20474;-71
2022/05/26 10:48:03;;;;;;;3.93;0.87;;;;;;;;;;5096625;28;20443;-71
2022/05/26 10:50:39;;;;;;;2.00;0.70;;;;;;;;;;5081730;28;20464;-72
2022/05/26 10:53:15;;;;;;;3.27;0.80;;;;;;;;;;5075919;28;20449;-71
2022/05/26 10:55:49;;;;;;;2.70;0.90;;;;;;;;;;5075565;28;20498;-70
2022/05/26 10:58:18;;;;;;;2.47;0.70;;;;;;;;;;5075507;28;20747;-70
2022/05/26 11:00:47;;;;;;;4.30;1.00;;;;;;;;;;5074551;28;20771;-71
2022/05/26 11:03:22;;;;;;;3.63;1.13;;;;;;;;;;5074788;28;20463;-72
2022/05/26 11:05:51;;;;;;;2.63;0.70;;;;;;;;;;5077585;28;20452;-71
2022/05/26 11:08:26;;;;;;;2.70;0.90;;;;;;;;;;5077447;28;20921;-71
2022/05/26 11:10:55;;;;;;;4.80;1.13;;;;;;;;;;5076814;28;20513;-70
2022/05/26 11:13:25;;;;;;;4.70;0.80;;;;;;;;;;5077342;28;20531;-71
2022/05/26 11:18:47;;;;;;;6.00;1.20;;;;;;;;;;5084400;28;20960;-70
2022/05/26 11:21:19;;;;;;;3.87;0.93;;;;;;;;;;5098393;28;20452;-70
2022/05/26 11:23:46;;;;;;;4.07;1.10;;;;;;;;;;5097784;28;20554;-70
2022/05/26 11:26:20;;;;;;;4.27;1.40;;;;;;;;;;5096420;28;20505;-71
2022/05/26 11:28:50;;;;;;;4.30;0.83;;;;;;;;;;5097118;28;20467;-72
2022/05/26 11:36:56;;;;;;;2.77;1.07;;;;;;;;;;5051435;28;20464;-71
2022/05/26 11:39:28;;;;;;;6.07;1.07;;;;;;;;;;5095785;28;20478;-71
2022/05/26 11:42:08;;;;;;;3.33;0.93;;;;;;;;;;5097256;28;20489;-70
2022/05/26 11:44:38;;;;;;;6.20;1.00;;;;;;;;;;5097585;28;20540;-71
2022/05/26 11:47:29;;;;;;;6.67;1.03;;;;;;;;;;5097505;28;20466;-71
2022/05/26 11:50:05;;;;;;;2.70;1.10;;;;;;;;;;5097260;28;20467;-71
2022/05/26 11:52:52;;;;;;;5.63;1.00;;;;;;;;;;5096830;28;20458;-70
2022/05/26 11:55:28;;;;;;;1.90;0.80;;;;;;;;;;5096270;28;20483;-71
2022/05/26 11:57:55;;;;;;;2.90;0.70;;;;;;;;;;5096537;28;20445;-71
2022/05/26 12:00:23;;;;;;;2.53;0.80;;;;;;;;;;5097151;28;20467;-71
2022/05/26 12:02:54;;;;;;;5.17;0.90;;;;;;;;;;5096336;28;20538;-70
2022/05/26 12:05:40;;;;;;;2.70;0.97;;;;;;;;;;5095248;28;20448;-71
2022/05/26 12:08:23;;;;;;;3.80;0.90;;;;;;;;;;5096710;28;20448;-70
2022/05/26 12:10:54;;;;;;;5.30;1.10;;;;;;;;;;5096946;28;20443;-70
2022/05/26 12:13:33;;;;;;;4.03;0.80;;;;;;;;;;5096545;28;20501;-71
2022/05/26 12:16:22;;;;;;;2.67;0.90;;;;;;;;;;5095458;27;20566;-70
2022/05/26 12:18:50;;;;;;;2.13;1.50;;;;;;;;;;5092137;28;20552;-70
2022/05/26 12:21:19;;;;;;;4.67;0.90;;;;;;;;;;5096278;28;20452;-71
2022/05/26 12:23:46;;;;;;;2.60;0.87;;;;;;;;;;5096770;28;20486;-70
2022/05/26 12:26:28;;;;;;;2.80;0.90;;;;;;;;;;5096926;28;20498;-71
2022/05/26 12:28:56;;;;;;;6.40;0.90;;;;;;;;;;5096035;28;20470;-71
2022/05/26 12:31:23;;;;;;;4.30;0.80;;;;;;;;;;5097924;28;20867;-70
2022/05/26 12:34:13;;;;;;;2.10;1.00;;;;;;;;;;5082137;28;20457;-72
2022/05/26 12:36:45;;;;;;;1.70;0.60;;;;;;;;;;5092556;28;20458;-70
2022/05/26 12:39:25;;;;;;;2.10;0.80;;;;;;;;;;5095708;28;20798;-72
2022/05/26 12:41:57;;;;;;;4.00;0.93;;;;;;;;;;5096548;28;20455;-71
2022/05/26 12:44:33;;;;;;;5.13;0.93;;;;;;;;;;5096021;28;20883;-70
2022/05/26 12:47:04;;;;;;;1.87;0.70;;;;;;;;;;5095989;28;20909;-70
2022/05/26 12:49:44;;;;;;;4.30;1.07;;;;;;;;;;5095062;28;20440;-70
2022/05/26 12:52:13;;;;;;;2.10;0.73;;;;;;;;;;5092699;28;20519;-70
2022/05/26 12:54:45;;;;;;;3.33;1.03;;;;;;;;;;5095849;28;20483;-71
2022/05/26 12:57:18;;;;;;;5.80;1.30;;;;;;;;;;5094738;28;20455;-70
2022/05/26 12:59:45;;;;;;;2.93;0.80;;;;;;;;;;5094734;28;20679;-70
2022/05/26 13:02:13;;;;;;;2.33;0.80;;;;;;;;;;5094453;28;20458;-72
2022/05/26 13:04:42;;;;;;;4.30;0.90;;;;;;;;;;5095133;28;20641;-71
2022/05/26 13:07:12;;;;;;;4.70;1.23;;;;;;;;;;5095663;28;20963;-71
2022/05/26 13:09:43;;;;;;;6.77;0.80;;;;;;;;;;5097477;28;20448;-71
2022/05/26 13:12:10;;;;;;;3.20;0.87;;;;;;;;;;5095725;28;20448;-70
2022/05/26 13:14:44;;;;;;;2.00;0.80;;;;;;;;;;5093910;28;20495;-72
2022/05/26 13:17:13;;;;;;;2.57;0.67;;;;;;;;;;5093616;28;20460;-71
2022/05/26 13:19:42;;;;;;;3.73;1.37;;;;;;;;;;5095018;28;20447;-71
2022/05/26 13:22:12;;;;;;;3.63;1.53;;;;;;;;;;5094687;28;20469;-71
2022/05/26 13:24:50;;;;;;;4.83;0.70;;;;;;;;;;5095350;28;20459;-70
2022/05/26 13:27:21;;;;;;;2.27;0.70;;;;;;;;;;5094585;28;20474;-71
2022/05/26 13:29:52;;;;;;;1.90;0.80;;;;;;;;;;5095242;28;20473;-71
2022/05/26 13:35:11;;;;;;;2.77;1.00;;;;;;;;;;5095543;28;20474;-71
2022/05/26 13:37:42;;;;;;;1.90;0.70;;;;;;;;;;5093443;28;20489;-71
2022/05/26 13:40:19;;;;;;;2.90;0.70;;;;;;;;;;5094154;28;20439;-71
2022/05/26 13:42:47;;;;;;;2.13;0.77;;;;;;;;;;5094570;28;20490;-71
2022/05/26 13:45:22;;;;;;;6.87;1.40;;;;;;;;;;5092976;28;20460;-70
2022/05/26 13:47:49;;;;;;;4.00;0.90;;;;;;;;;;5095724;28;20483;-70
2022/05/26 13:50:33;;;;;;;2.37;0.60;;;;;;;;;;5091284;28;20451;-71
2022/05/26 13:53:00;;;;;;;1.87;0.60;;;;;;;;;;5095948;28;20503;-71
2022/05/26 13:55:27;;;;;;;1.50;0.60;;;;;;;;;;5096649;28;20487;-71
2022/05/26 13:57:55;;;;;;;2.20;0.70;;;;;;;;;;5094742;28;20964;-71
2022/05/26 14:00:28;;;;;;;2.50;0.80;;;;;;;;;;5092000;28;20460;-71
2022/05/26 14:02:58;;;;;;;3.07;0.70;;;;;;;;;;5095543;28;20550;-70
2022/05/26 14:05:27;;;;;;;2.70;1.00;;;;;;;;;;5095046;28;20463;-71
2022/05/26 14:08:02;;;;;;;4.43;0.80;;;;;;;;;;5094080;28;20466;-70
2022/05/26 14:10:30;;;;;;;4.70;0.73;;;;;;;;;;5094040;28;20458;-71
2022/05/26 14:13:05;;;;;;;3.40;0.80;;;;;;;;;;5093135;28;20511;-71
2022/05/26 14:15:44;;;;;;;3.60;1.20;;;;;;;;;;5094101;28;20510;-70
2022/05/26 14:18:22;;;;;;;3.73;0.77;;;;;;;;;;5094935;28;20457;-70
2022/05/26 14:21:01;;;;;;;3.10;0.90;;;;;;;;;;5094334;28;20467;-70
2022/05/26 14:23:32;;;;;;;3.80;0.80;;;;;;;;;;5095086;28;20456;-70
2022/05/26 14:26:00;;;;;;;2.33;0.80;;;;;;;;;;5094109;28;20459;-71
2022/05/26 14:28:32;;;;;;;1.80;0.70;;;;;;;;;;5094871;28;20550;-71
2022/05/26 14:31:02;;;;;;;5.17;1.00;;;;;;;;;;5093339;28;20450;-71
2022/05/26 14:33:34;;;;;;;2.00;1.07;;;;;;;;;;5092268;28;20451;-71
2022/05/26 14:36:02;;;;;;;4.50;1.00;;;;;;;;;;5093577;28;20482;-70
2022/05/26 14:38:29;;;;;;;3.47;0.93;;;;;;;;;;5094288;28;20459;-71
2022/05/26 14:40:59;;;;;;;6.17;0.97;;;;;;;;;;5093845;28;20451;-68
2022/05/26 14:43:35;;;;;;;3.00;0.90;;;;;;;;;;5092576;28;20455;-71
2022/05/26 14:46:05;;;;;;;4.17;0.90;;;;;;;;;;5093403;28;20455;-71
2022/05/26 14:48:32;;;;;;;2.77;0.80;;;;;;;;;;5093465;28;20803;-69
2022/05/26 14:51:01;;;;;;;5.30;1.03;;;;;;;;;;5094072;28;20458;-71
2022/05/26 14:56:16;;;;;;;4.53;1.43;;;;;;;;;;5092967;28;20997;-70
2022/05/26 14:58:47;;;;;;;2.37;0.80;;;;;;;;;;5092486;28;20513;-69
2022/05/26 15:01:17;;;;;;;3.87;0.90;;;;;;;;;;5073460;28;20487;-71
2022/05/26 15:03:44;;;;;;;2.63;0.70;;;;;;;;;;5080761;28;20545;-71
2022/05/26 15:06:11;;;;;;;2.83;0.87;;;;;;;;;;5093941;28;20489;-71
2022/05/26 15:08:45;;;;;;;2.63;0.90;;;;;;;;;;5081909;28;20510;-70
2022/05/26 15:11:16;;;;;;;2.73;0.90;;;;;;;;;;5087837;28;20464;-70
2022/05/26 15:14:02;;;;;;;1.80;0.60;;;;;;;;;;5093638;28;20446;-70
2022/05/26 15:16:29;;;;;;;2.97;1.10;;;;;;;;;;5092239;28;20552;-70
2022/05/26 15:18:57;;;;;;;2.37;0.70;;;;;;;;;;5092936;28;20470;-70
2022/05/26 15:21:23;;;;;;;2.33;0.90;;;;;;;;;;5093041;28;20460;-70
2022/05/26 15:23:53;;;;;;;2.00;0.50;;;;;;;;;;5092168;28;20805;-70
2022/05/26 15:26:22;;;;;;;7.07;1.30;;;;;;;;;;5093018;28;20459;-71
2022/05/26 15:28:50;;;;;;;4.60;1.27;;;;;;;;;;5090396;28;20896;-72
2022/05/26 15:31:18;;;;;;;3.20;0.97;;;;;;;;;;5093667;28;20554;-71
2022/05/26 15:33:45;;;;;;;2.30;0.70;;;;;;;;;;5094044;28;20763;-71
2022/05/26 15:36:13;;;;;;;4.40;1.00;;;;;;;;;;5091904;28;20859;-70
2022/05/26 15:38:44;;;;;;;2.80;0.70;;;;;;;;;;5091356;28;20520;-71
2022/05/26 15:41:12;;;;;;;6.13;0.80;;;;;;;;;;5091265;28;20455;-70
2022/05/26 15:43:40;;;;;;;3.57;0.90;;;;;;;;;;5091580;28;20483;-70
2022/05/26 15:46:15;;;;;;;2.20;1.13;;;;;;;;;;5093073;28;20479;-70
2022/05/26 15:48:44;;;;;;;6.80;0.90;;;;;;;;;;5095321;28;21004;-69
2022/05/26 15:51:12;;;;;;;5.40;0.80;;;;;;;;;;5112721;27;20530;-70